首页
METAR-TAF:

METAR-TAF

机场 :

Newquay Cornwall, 英格兰

纬度: 50-26N, 经度: 005-00W, 海拔: 119米

当前天气观测

该预报发布于19分钟前的15:50 UTC
风速11节,风向北转东北
温度 22°C
湿度 38%
气压 1022 hPa
能见度10公里或以上
少量云层高于3000英尺

METAR: EGHQ 011550Z 02011KT 9999 FEW030 22/07 Q1022

时间: 17:09 (16:09 UTC)

预报

该预报发布于2小时和11分钟前的13:58 UTC
预报有效从01日的 15点(UTC)到 01日的 24点(UTC)
风速10节,风向北转东北
能见度10公里或以上
1500米以下无云,无积雨云
成为
从 01日的 18点(UTC)到 01日的 21点(UTC)
风速3节,风向多变

TAF: EGHQ 011358Z 0115/0124 02010KT CAVOK BECMG 0118/0121 VRB03KT

超过4000个机场的气象观测和天气预报(METAR&TAF报告)。

可查询的气象台以黄色和红色小点在地图上表示。

将鼠标移到小点上方,可查看气象台名称。

然后点击查看天气观测和预报。

如需切换地图:点击带黑十字的绿色按钮放大地图;点击带横线的绿色按钮缩小地图;或者点击绿色箭头查看邻近地区的地图。


METAR-TAF: